sensor_id;sensor_type;location;lat;lon;timestamp;P1;durP1;ratioP1;P2;durP2;ratioP2
19569;SDS011;9931;51.458;7.256;2022-09-09T00:03:53;9.77;;;2.25;;
19569;SDS011;9931;51.458;7.256;2022-09-09T00:08:54;9.10;;;1.90;;
19569;SDS011;9931;51.458;7.256;2022-09-09T00:11:58;10.45;;;2.22;;
19569;SDS011;9931;51.458;7.256;2022-09-09T00:14:22;8.95;;;2.10;;
19569;SDS011;9931;51.458;7.256;2022-09-09T00:16:50;19.25;;;3.25;;
19569;SDS011;9931;51.458;7.256;2022-09-09T00:21:47;7.97;;;1.60;;
19569;SDS011;9931;51.458;7.256;2022-09-09T00:24:26;14.05;;;2.75;;
19569;SDS011;9931;51.458;7.256;2022-09-09T00:26:53;5.00;;;1.70;;
19569;SDS011;9931;51.458;7.256;2022-09-09T00:32:13;9.68;;;2.20;;
19569;SDS011;9931;51.458;7.256;2022-09-09T00:34:42;10.90;;;2.38;;
19569;SDS011;9931;51.458;7.256;2022-09-09T00:37:08;12.93;;;2.67;;
19569;SDS011;9931;51.458;7.256;2022-09-09T00:39:34;7.18;;;1.90;;
19569;SDS011;9931;51.458;7.256;2022-09-09T00:44:34;8.18;;;1.90;;
19569;SDS011;9931;51.458;7.256;2022-09-09T00:49:39;5.32;;;1.63;;
19569;SDS011;9931;51.458;7.256;2022-09-09T00:57:06;14.27;;;2.77;;
19569;SDS011;9931;51.458;7.256;2022-09-09T01:02:10;8.52;;;2.58;;
19569;SDS011;9931;51.458;7.256;2022-09-09T01:04:38;8.38;;;2.28;;
19569;SDS011;9931;51.458;7.256;2022-09-09T01:07:13;24.02;;;4.35;;
19569;SDS011;9931;51.458;7.256;2022-09-09T01:09:44;8.50;;;2.58;;
19569;SDS011;9931;51.458;7.256;2022-09-09T01:12:23;18.58;;;4.03;;
19569;SDS011;9931;51.458;7.256;2022-09-09T01:14:49;10.15;;;3.10;;
19569;SDS011;9931;51.458;7.256;2022-09-09T01:27:33;8.05;;;3.25;;
19569;SDS011;9931;51.458;7.256;2022-09-09T01:30:00;15.48;;;4.25;;
19569;SDS011;9931;51.458;7.256;2022-09-09T01:32:48;20.13;;;5.53;;
19569;SDS011;9931;51.458;7.256;2022-09-09T01:35:37;13.02;;;3.92;;
19569;SDS011;9931;51.458;7.256;2022-09-09T01:37:56;10.27;;;3.55;;
19569;SDS011;9931;51.458;7.256;2022-09-09T01:40:23;11.50;;;4.63;;
19569;SDS011;9931;51.458;7.256;2022-09-09T01:42:48;13.93;;;4.63;;
19569;SDS011;9931;51.458;7.256;2022-09-09T01:45:13;25.08;;;6.18;;
19569;SDS011;9931;51.458;7.256;2022-09-09T01:47:39;7.75;;;4.30;;
19569;SDS011;9931;51.458;7.256;2022-09-09T01:50:04;22.17;;;6.03;;
19569;SDS011;9931;51.458;7.256;2022-09-09T01:52:31;24.73;;;6.65;;
19569;SDS011;9931;51.458;7.256;2022-09-09T01:54:58;11.88;;;4.80;;
19569;SDS011;9931;51.458;7.256;2022-09-09T01:57:27;15.98;;;5.38;;
19569;SDS011;9931;51.458;7.256;2022-09-09T02:02:32;50.15;;;9.38;;
19569;SDS011;9931;51.458;7.256;2022-09-09T02:07:55;10.10;;;4.75;;
19569;SDS011;9931;51.458;7.256;2022-09-09T02:10:30;13.02;;;4.70;;
19569;SDS011;9931;51.458;7.256;2022-09-09T02:13:30;19.88;;;5.13;;
19569;SDS011;9931;51.458;7.256;2022-09-09T02:18:13;13.10;;;4.27;;
19569;SDS011;9931;51.458;7.256;2022-09-09T02:20:41;9.85;;;3.60;;
19569;SDS011;9931;51.458;7.256;2022-09-09T02:23:07;19.35;;;4.90;;
19569;SDS011;9931;51.458;7.256;2022-09-09T02:25:33;15.90;;;4.32;;
19569;SDS011;9931;51.458;7.256;2022-09-09T02:28:00;12.70;;;3.90;;
19569;SDS011;9931;51.458;7.256;2022-09-09T02:30:33;9.43;;;3.97;;
19569;SDS011;9931;51.458;7.256;2022-09-09T02:33:00;10.80;;;3.72;;
19569;SDS011;9931;51.458;7.256;2022-09-09T02:35:27;29.38;;;5.88;;
19569;SDS011;9931;51.458;7.256;2022-09-09T02:37:53;10.20;;;3.53;;
19569;SDS011;9931;51.458;7.256;2022-09-09T02:40:19;9.70;;;3.53;;
19569;SDS011;9931;51.458;7.256;2022-09-09T02:42:47;20.52;;;4.45;;
19569;SDS011;9931;51.458;7.256;2022-09-09T02:45:13;10.98;;;4.00;;
19569;SDS011;9931;51.458;7.256;2022-09-09T02:50:44;9.90;;;3.30;;
19569;SDS011;9931;51.458;7.256;2022-09-09T02:53:15;12.52;;;3.70;;
19569;SDS011;9931;51.458;7.256;2022-09-09T02:55:47;7.30;;;3.25;;
19569;SDS011;9931;51.458;7.256;2022-09-09T02:58:14;12.07;;;3.58;;
19569;SDS011;9931;51.458;7.256;2022-09-09T03:00:42;8.82;;;3.50;;
19569;SDS011;9931;51.458;7.256;2022-09-09T03:03:08;12.00;;;3.42;;
19569;SDS011;9931;51.458;7.256;2022-09-09T03:05:34;9.77;;;3.03;;
19569;SDS011;9931;51.458;7.256;2022-09-09T03:07:59;9.27;;;3.25;;
19569;SDS011;9931;51.458;7.256;2022-09-09T03:10:24;11.30;;;3.17;;
19569;SDS011;9931;51.458;7.256;2022-09-09T03:12:50;10.10;;;3.05;;
19569;SDS011;9931;51.458;7.256;2022-09-09T03:15:15;9.38;;;3.00;;
19569;SDS011;9931;51.458;7.256;2022-09-09T03:17:41;17.67;;;4.40;;
19569;SDS011;9931;51.458;7.256;2022-09-09T03:20:06;11.18;;;3.28;;
19569;SDS011;9931;51.458;7.256;2022-09-09T03:22:33;18.13;;;3.90;;
19569;SDS011;9931;51.458;7.256;2022-09-09T03:24:58;12.30;;;3.22;;
19569;SDS011;9931;51.458;7.256;2022-09-09T03:27:23;8.50;;;2.73;;
19569;SDS011;9931;51.458;7.256;2022-09-09T03:29:48;22.58;;;4.53;;
19569;SDS011;9931;51.458;7.256;2022-09-09T03:32:16;13.57;;;3.10;;
19569;SDS011;9931;51.458;7.256;2022-09-09T03:34:42;11.07;;;2.67;;
19569;SDS011;9931;51.458;7.256;2022-09-09T03:37:07;12.90;;;2.90;;
19569;SDS011;9931;51.458;7.256;2022-09-09T03:39:32;8.70;;;2.67;;
19569;SDS011;9931;51.458;7.256;2022-09-09T03:41:58;5.72;;;2.35;;
19569;SDS011;9931;51.458;7.256;2022-09-09T03:44:23;8.65;;;2.70;;
19569;SDS011;9931;51.458;7.256;2022-09-09T03:46:48;9.02;;;2.63;;
19569;SDS011;9931;51.458;7.256;2022-09-09T03:49:13;12.27;;;3.00;;
19569;SDS011;9931;51.458;7.256;2022-09-09T03:51:39;16.33;;;3.45;;
19569;SDS011;9931;51.458;7.256;2022-09-09T03:54:04;14.35;;;3.30;;
19569;SDS011;9931;51.458;7.256;2022-09-09T03:56:33;10.18;;;2.58;;
19569;SDS011;9931;51.458;7.256;2022-09-09T03:58:58;10.05;;;2.78;;
19569;SDS011;9931;51.458;7.256;2022-09-09T04:01:23;9.60;;;2.80;;
19569;SDS011;9931;51.458;7.256;2022-09-09T04:03:48;8.68;;;2.65;;
19569;SDS011;9931;51.458;7.256;2022-09-09T04:06:15;9.05;;;2.63;;
19569;SDS011;9931;51.458;7.256;2022-09-09T04:08:40;14.80;;;5.20;;
19569;SDS011;9931;51.458;7.256;2022-09-09T04:11:06;23.85;;;4.30;;
19569;SDS011;9931;51.458;7.256;2022-09-09T04:13:35;32.33;;;5.55;;
19569;SDS011;9931;51.458;7.256;2022-09-09T04:16:02;10.10;;;2.90;;
19569;SDS011;9931;51.458;7.256;2022-09-09T04:18:28;9.65;;;2.75;;
19569;SDS011;9931;51.458;7.256;2022-09-09T04:20:53;10.77;;;2.65;;
19569;SDS011;9931;51.458;7.256;2022-09-09T04:23:19;8.60;;;2.55;;
19569;SDS011;9931;51.458;7.256;2022-09-09T04:25:49;10.52;;;2.47;;
19569;SDS011;9931;51.458;7.256;2022-09-09T04:28:15;10.95;;;2.88;;
19569;SDS011;9931;51.458;7.256;2022-09-09T04:30:40;9.70;;;2.65;;
19569;SDS011;9931;51.458;7.256;2022-09-09T04:33:06;9.00;;;2.63;;
19569;SDS011;9931;51.458;7.256;2022-09-09T04:35:32;5.40;;;2.08;;
19569;SDS011;9931;51.458;7.256;2022-09-09T04:37:57;12.45;;;3.00;;
19569;SDS011;9931;51.458;7.256;2022-09-09T04:40:23;11.15;;;2.67;;
19569;SDS011;9931;51.458;7.256;2022-09-09T04:42:48;8.20;;;2.55;;
19569;SDS011;9931;51.458;7.256;2022-09-09T04:45:14;12.75;;;2.63;;
19569;SDS011;9931;51.458;7.256;2022-09-09T04:47:39;10.93;;;2.60;;
19569;SDS011;9931;51.458;7.256;2022-09-09T04:50:05;13.68;;;3.25;;
19569;SDS011;9931;51.458;7.256;2022-09-09T04:52:31;22.90;;;4.22;;
19569;SDS011;9931;51.458;7.256;2022-09-09T04:54:56;4.53;;;2.03;;
19569;SDS011;9931;51.458;7.256;2022-09-09T04:57:21;12.40;;;2.97;;
19569;SDS011;9931;51.458;7.256;2022-09-09T04:59:47;11.10;;;2.70;;
19569;SDS011;9931;51.458;7.256;2022-09-09T05:02:13;10.65;;;3.10;;
19569;SDS011;9931;51.458;7.256;2022-09-09T05:04:38;17.55;;;3.72;;
19569;SDS011;9931;51.458;7.256;2022-09-09T05:07:03;12.15;;;3.15;;
19569;SDS011;9931;51.458;7.256;2022-09-09T05:09:29;27.83;;;13.30;;
19569;SDS011;9931;51.458;7.256;2022-09-09T05:11:54;11.75;;;3.63;;
19569;SDS011;9931;51.458;7.256;2022-09-09T05:14:20;10.27;;;2.92;;
19569;SDS011;9931;51.458;7.256;2022-09-09T05:16:46;10.13;;;2.60;;
19569;SDS011;9931;51.458;7.256;2022-09-09T05:19:12;15.63;;;3.40;;
19569;SDS011;9931;51.458;7.256;2022-09-09T05:21:37;9.80;;;2.60;;
19569;SDS011;9931;51.458;7.256;2022-09-09T05:24:02;9.57;;;2.83;;
19569;SDS011;9931;51.458;7.256;2022-09-09T05:26:27;11.55;;;3.00;;
19569;SDS011;9931;51.458;7.256;2022-09-09T05:28:54;10.65;;;2.63;;
19569;SDS011;9931;51.458;7.256;2022-09-09T05:31:20;9.70;;;2.70;;
19569;SDS011;9931;51.458;7.256;2022-09-09T05:33:46;11.75;;;2.70;;
19569;SDS011;9931;51.458;7.256;2022-09-09T05:36:13;10.25;;;2.90;;
19569;SDS011;9931;51.458;7.256;2022-09-09T05:38:39;13.73;;;4.72;;
19569;SDS011;9931;51.458;7.256;2022-09-09T05:41:05;12.57;;;3.55;;
19569;SDS011;9931;51.458;7.256;2022-09-09T05:43:30;9.25;;;2.70;;
19569;SDS011;9931;51.458;7.256;2022-09-09T05:48:29;10.70;;;2.90;;
19569;SDS011;9931;51.458;7.256;2022-09-09T05:50:55;10.88;;;2.90;;
19569;SDS011;9931;51.458;7.256;2022-09-09T05:53:20;10.77;;;3.08;;
19569;SDS011;9931;51.458;7.256;2022-09-09T05:55:46;12.97;;;3.20;;
19569;SDS011;9931;51.458;7.256;2022-09-09T05:58:11;21.27;;;4.15;;
19569;SDS011;9931;51.458;7.256;2022-09-09T06:00:36;11.35;;;2.92;;
19569;SDS011;9931;51.458;7.256;2022-09-09T06:03:02;13.15;;;3.45;;
19569;SDS011;9931;51.458;7.256;2022-09-09T06:05:28;11.15;;;3.30;;
19569;SDS011;9931;51.458;7.256;2022-09-09T06:07:57;9.23;;;2.70;;
19569;SDS011;9931;51.458;7.256;2022-09-09T06:10:22;7.05;;;2.63;;
19569;SDS011;9931;51.458;7.256;2022-09-09T06:12:47;12.93;;;2.87;;
19569;SDS011;9931;51.458;7.256;2022-09-09T06:15:13;16.33;;;3.10;;
19569;SDS011;9931;51.458;7.256;2022-09-09T06:17:38;19.67;;;3.58;;
19569;SDS011;9931;51.458;7.256;2022-09-09T06:20:04;9.88;;;3.10;;
19569;SDS011;9931;51.458;7.256;2022-09-09T06:22:29;16.40;;;3.50;;
19569;SDS011;9931;51.458;7.256;2022-09-09T06:24:54;13.75;;;3.20;;
19569;SDS011;9931;51.458;7.256;2022-09-09T06:27:20;8.27;;;2.72;;
19569;SDS011;9931;51.458;7.256;2022-09-09T06:29:46;10.90;;;2.90;;
19569;SDS011;9931;51.458;7.256;2022-09-09T06:32:11;11.20;;;2.90;;
19569;SDS011;9931;51.458;7.256;2022-09-09T06:34:36;7.47;;;2.50;;
19569;SDS011;9931;51.458;7.256;2022-09-09T06:37:01;8.75;;;2.67;;
19569;SDS011;9931;51.458;7.256;2022-09-09T06:39:26;13.57;;;3.25;;
19569;SDS011;9931;51.458;7.256;2022-09-09T06:41:52;3.80;;;1.93;;
19569;SDS011;9931;51.458;7.256;2022-09-09T06:44:18;12.57;;;3.15;;
19569;SDS011;9931;51.458;7.256;2022-09-09T06:46:44;9.02;;;2.67;;
19569;SDS011;9931;51.458;7.256;2022-09-09T06:49:12;14.88;;;3.00;;
19569;SDS011;9931;51.458;7.256;2022-09-09T06:51:38;8.52;;;2.22;;
19569;SDS011;9931;51.458;7.256;2022-09-09T06:54:08;12.77;;;2.58;;
19569;SDS011;9931;51.458;7.256;2022-09-09T06:56:34;11.10;;;2.70;;
19569;SDS011;9931;51.458;7.256;2022-09-09T06:59:01;16.25;;;3.20;;
19569;SDS011;9931;51.458;7.256;2022-09-09T07:01:29;7.43;;;2.28;;
19569;SDS011;9931;51.458;7.256;2022-09-09T07:03:56;8.70;;;2.30;;
19569;SDS011;9931;51.458;7.256;2022-09-09T07:06:26;10.20;;;2.30;;
19569;SDS011;9931;51.458;7.256;2022-09-09T07:08:58;9.68;;;2.10;;
19569;SDS011;9931;51.458;7.256;2022-09-09T07:11:25;9.95;;;2.65;;
19569;SDS011;9931;51.458;7.256;2022-09-09T07:13:51;3.92;;;1.58;;
19569;SDS011;9931;51.458;7.256;2022-09-09T07:16:18;7.18;;;2.10;;
19569;SDS011;9931;51.458;7.256;2022-09-09T07:18:43;14.30;;;2.75;;
19569;SDS011;9931;51.458;7.256;2022-09-09T07:21:12;6.68;;;1.60;;
19569;SDS011;9931;51.458;7.256;2022-09-09T07:23:38;19.10;;;3.60;;
19569;SDS011;9931;51.458;7.256;2022-09-09T07:26:07;20.52;;;3.70;;
19569;SDS011;9931;51.458;7.256;2022-09-09T07:28:33;8.38;;;1.90;;
19569;SDS011;9931;51.458;7.256;2022-09-09T07:30:59;18.13;;;6.43;;
19569;SDS011;9931;51.458;7.256;2022-09-09T07:33:28;14.40;;;2.38;;
19569;SDS011;9931;51.458;7.256;2022-09-09T07:36:01;10.43;;;2.40;;
19569;SDS011;9931;51.458;7.256;2022-09-09T07:38:26;18.10;;;2.70;;
19569;SDS011;9931;51.458;7.256;2022-09-09T07:40:52;8.23;;;2.10;;
19569;SDS011;9931;51.458;7.256;2022-09-09T07:43:17;12.77;;;2.35;;
19569;SDS011;9931;51.458;7.256;2022-09-09T07:45:43;16.15;;;2.85;;
19569;SDS011;9931;51.458;7.256;2022-09-09T07:48:09;10.18;;;2.17;;
19569;SDS011;9931;51.458;7.256;2022-09-09T07:50:34;6.13;;;1.70;;
19569;SDS011;9931;51.458;7.256;2022-09-09T07:52:59;10.77;;;2.22;;
19569;SDS011;9931;51.458;7.256;2022-09-09T07:55:25;8.48;;;2.10;;
19569;SDS011;9931;51.458;7.256;2022-09-09T07:57:52;8.52;;;2.10;;
19569;SDS011;9931;51.458;7.256;2022-09-09T08:00:17;8.23;;;1.95;;
19569;SDS011;9931;51.458;7.256;2022-09-09T08:02:43;12.35;;;2.55;;
19569;SDS011;9931;51.458;7.256;2022-09-09T08:05:08;8.65;;;1.95;;
19569;SDS011;9931;51.458;7.256;2022-09-09T08:07:34;11.02;;;2.17;;
19569;SDS011;9931;51.458;7.256;2022-09-09T08:09:59;10.60;;;2.17;;
19569;SDS011;9931;51.458;7.256;2022-09-09T08:12:24;23.00;;;3.73;;
19569;SDS011;9931;51.458;7.256;2022-09-09T08:14:50;11.07;;;2.42;;
19569;SDS011;9931;51.458;7.256;2022-09-09T08:17:16;6.65;;;1.70;;
19569;SDS011;9931;51.458;7.256;2022-09-09T08:19:41;9.23;;;2.28;;
19569;SDS011;9931;51.458;7.256;2022-09-09T08:22:06;10.18;;;2.13;;
19569;SDS011;9931;51.458;7.256;2022-09-09T08:24:32;6.43;;;1.67;;
19569;SDS011;9931;51.458;7.256;2022-09-09T08:26:57;5.35;;;1.60;;
19569;SDS011;9931;51.458;7.256;2022-09-09T08:29:23;12.85;;;2.72;;
19569;SDS011;9931;51.458;7.256;2022-09-09T08:34:14;9.32;;;2.28;;
19569;SDS011;9931;51.458;7.256;2022-09-09T08:36:41;11.35;;;2.05;;
19569;SDS011;9931;51.458;7.256;2022-09-09T08:39:07;20.63;;;3.50;;
19569;SDS011;9931;51.458;7.256;2022-09-09T08:44:26;8.70;;;2.17;;
19569;SDS011;9931;51.458;7.256;2022-09-09T08:47:34;12.10;;;2.47;;
19569;SDS011;9931;51.458;7.256;2022-09-09T08:52:31;8.07;;;2.08;;
19569;SDS011;9931;51.458;7.256;2022-09-09T08:57:59;10.27;;;2.50;;
19569;SDS011;9931;51.458;7.256;2022-09-09T09:00:33;6.25;;;1.88;;
19569;SDS011;9931;51.458;7.256;2022-09-09T09:03:04;7.57;;;1.92;;
19569;SDS011;9931;51.458;7.256;2022-09-09T09:05:33;10.07;;;2.50;;
19569;SDS011;9931;51.458;7.256;2022-09-09T09:08:08;8.30;;;2.38;;
19569;SDS011;9931;51.458;7.256;2022-09-09T09:10:41;7.05;;;2.20;;
19569;SDS011;9931;51.458;7.256;2022-09-09T09:13:17;7.88;;;2.13;;
19569;SDS011;9931;51.458;7.256;2022-09-09T09:15:42;23.30;;;10.80;;
19569;SDS011;9931;51.458;7.256;2022-09-09T09:18:10;8.07;;;2.45;;
19569;SDS011;9931;51.458;7.256;2022-09-09T09:20:59;8.95;;;2.35;;
19569;SDS011;9931;51.458;7.256;2022-09-09T09:23:24;8.52;;;2.10;;
19569;SDS011;9931;51.458;7.256;2022-09-09T09:25:50;8.57;;;2.30;;
19569;SDS011;9931;51.458;7.256;2022-09-09T09:28:18;10.85;;;2.47;;
19569;SDS011;9931;51.458;7.256;2022-09-09T09:30:55;9.48;;;2.17;;
19569;SDS011;9931;51.458;7.256;2022-09-09T09:35:50;9.18;;;2.25;;
19569;SDS011;9931;51.458;7.256;2022-09-09T09:40:54;11.23;;;2.20;;
19569;SDS011;9931;51.458;7.256;2022-09-09T09:43:21;9.90;;;2.20;;
19569;SDS011;9931;51.458;7.256;2022-09-09T09:45:48;9.07;;;2.13;;
19569;SDS011;9931;51.458;7.256;2022-09-09T09:48:14;8.32;;;1.85;;
19569;SDS011;9931;51.458;7.256;2022-09-09T09:50:49;7.20;;;1.95;;
19569;SDS011;9931;51.458;7.256;2022-09-09T09:53:20;9.93;;;2.10;;
19569;SDS011;9931;51.458;7.256;2022-09-09T09:55:55;8.93;;;1.80;;
19569;SDS011;9931;51.458;7.256;2022-09-09T09:58:22;4.93;;;1.52;;
19569;SDS011;9931;51.458;7.256;2022-09-09T10:00:48;8.50;;;1.83;;
19569;SDS011;9931;51.458;7.256;2022-09-09T10:03:35;9.32;;;2.17;;
19569;SDS011;9931;51.458;7.256;2022-09-09T10:06:02;11.05;;;2.35;;
19569;SDS011;9931;51.458;7.256;2022-09-09T10:08:28;12.05;;;2.60;;
19569;SDS011;9931;51.458;7.256;2022-09-09T10:13:37;10.85;;;2.22;;
19569;SDS011;9931;51.458;7.256;2022-09-09T10:19:02;9.18;;;1.92;;
19569;SDS011;9931;51.458;7.256;2022-09-09T10:29:04;11.73;;;2.10;;
19569;SDS011;9931;51.458;7.256;2022-09-09T10:31:39;7.50;;;1.83;;
19569;SDS011;9931;51.458;7.256;2022-09-09T10:36:52;8.75;;;1.65;;
19569;SDS011;9931;51.458;7.256;2022-09-09T10:46:59;4.70;;;1.53;;
19569;SDS011;9931;51.458;7.256;2022-09-09T10:54:26;8.82;;;1.98;;
19569;SDS011;9931;51.458;7.256;2022-09-09T10:56:58;5.32;;;1.52;;
19569;SDS011;9931;51.458;7.256;2022-09-09T10:59:28;8.25;;;1.83;;
19569;SDS011;9931;51.458;7.256;2022-09-09T11:04:22;2.90;;;1.20;;
19569;SDS011;9931;51.458;7.256;2022-09-09T11:06:49;8.10;;;1.83;;
19569;SDS011;9931;51.458;7.256;2022-09-09T11:09:18;6.57;;;1.60;;
19569;SDS011;9931;51.458;7.256;2022-09-09T11:11:55;14.05;;;2.47;;
19569;SDS011;9931;51.458;7.256;2022-09-09T11:16:56;7.25;;;1.73;;
19569;SDS011;9931;51.458;7.256;2022-09-09T11:19:44;10.80;;;2.08;;
19569;SDS011;9931;51.458;7.256;2022-09-09T11:24:38;7.50;;;1.63;;
19569;SDS011;9931;51.458;7.256;2022-09-09T11:27:10;10.98;;;2.15;;
19569;SDS011;9931;51.458;7.256;2022-09-09T11:34:54;10.52;;;2.00;;
19569;SDS011;9931;51.458;7.256;2022-09-09T11:42:33;17.25;;;2.90;;
19569;SDS011;9931;51.458;7.256;2022-09-09T11:45:08;1.65;;;1.00;;
19569;SDS011;9931;51.458;7.256;2022-09-09T11:47:33;4.07;;;1.30;;
19569;SDS011;9931;51.458;7.256;2022-09-09T11:52:40;12.38;;;2.40;;
19569;SDS011;9931;51.458;7.256;2022-09-09T11:55:08;18.50;;;2.92;;
19569;SDS011;9931;51.458;7.256;2022-09-09T11:57:35;12.05;;;2.38;;
19569;SDS011;9931;51.458;7.256;2022-09-09T12:00:00;14.57;;;2.55;;
19569;SDS011;9931;51.458;7.256;2022-09-09T12:02:27;24.13;;;3.70;;
19569;SDS011;9931;51.458;7.256;2022-09-09T12:04:57;13.93;;;2.40;;
19569;SDS011;9931;51.458;7.256;2022-09-09T12:07:33;15.77;;;2.55;;
19569;SDS011;9931;51.458;7.256;2022-09-09T12:12:34;20.20;;;3.15;;
19569;SDS011;9931;51.458;7.256;2022-09-09T12:17:36;13.05;;;2.30;;
19569;SDS011;9931;51.458;7.256;2022-09-09T12:20:13;54.00;;;16.33;;
19569;SDS011;9931;51.458;7.256;2022-09-09T12:27:46;17.17;;;2.85;;
19569;SDS011;9931;51.458;7.256;2022-09-09T12:30:15;21.63;;;3.33;;
19569;SDS011;9931;51.458;7.256;2022-09-09T12:32:40;14.23;;;2.65;;
19569;SDS011;9931;51.458;7.256;2022-09-09T12:35:10;25.83;;;3.70;;
19569;SDS011;9931;51.458;7.256;2022-09-09T12:37:40;24.60;;;3.65;;
19569;SDS011;9931;51.458;7.256;2022-09-09T12:40:18;16.58;;;2.55;;
19569;SDS011;9931;51.458;7.256;2022-09-09T12:42:44;13.68;;;2.17;;
19569;SDS011;9931;51.458;7.256;2022-09-09T12:45:16;14.83;;;2.33;;
19569;SDS011;9931;51.458;7.256;2022-09-09T12:47:46;11.70;;;2.08;;
19569;SDS011;9931;51.458;7.256;2022-09-09T12:50:16;12.98;;;2.50;;
19569;SDS011;9931;51.458;7.256;2022-09-09T12:52:42;7.78;;;1.83;;
19569;SDS011;9931;51.458;7.256;2022-09-09T12:55:16;13.68;;;2.47;;
19569;SDS011;9931;51.458;7.256;2022-09-09T12:57:41;22.83;;;3.78;;
19569;SDS011;9931;51.458;7.256;2022-09-09T13:00:17;17.85;;;2.88;;
19569;SDS011;9931;51.458;7.256;2022-09-09T13:05:20;13.27;;;2.38;;
19569;SDS011;9931;51.458;7.256;2022-09-09T13:07:46;16.35;;;2.58;;
19569;SDS011;9931;51.458;7.256;2022-09-09T13:10:12;21.05;;;3.33;;
19569;SDS011;9931;51.458;7.256;2022-09-09T13:12:38;16.85;;;2.75;;
19569;SDS011;9931;51.458;7.256;2022-09-09T13:15:04;15.40;;;2.75;;
19569;SDS011;9931;51.458;7.256;2022-09-09T13:17:34;23.25;;;3.50;;
19569;SDS011;9931;51.458;7.256;2022-09-09T13:20:00;22.88;;;3.53;;
19569;SDS011;9931;51.458;7.256;2022-09-09T13:22:37;25.65;;;3.78;;
19569;SDS011;9931;51.458;7.256;2022-09-09T13:25:17;13.40;;;2.25;;
19569;SDS011;9931;51.458;7.256;2022-09-09T13:27:51;9.50;;;2.38;;
19569;SDS011;9931;51.458;7.256;2022-09-09T13:35:34;11.82;;;2.10;;
19569;SDS011;9931;51.458;7.256;2022-09-09T13:38:06;15.30;;;2.72;;
19569;SDS011;9931;51.458;7.256;2022-09-09T13:40:32;32.95;;;8.13;;
19569;SDS011;9931;51.458;7.256;2022-09-09T13:42:57;12.30;;;2.22;;
19569;SDS011;9931;51.458;7.256;2022-09-09T13:45:24;14.25;;;2.45;;
19569;SDS011;9931;51.458;7.256;2022-09-09T13:47:51;17.38;;;2.88;;
19569;SDS011;9931;51.458;7.256;2022-09-09T13:50:24;16.98;;;2.83;;
19569;SDS011;9931;51.458;7.256;2022-09-09T13:52:50;17.83;;;2.50;;
19569;SDS011;9931;51.458;7.256;2022-09-09T13:55:16;22.60;;;3.40;;
19569;SDS011;9931;51.458;7.256;2022-09-09T13:58:01;13.00;;;2.60;;
19569;SDS011;9931;51.458;7.256;2022-09-09T14:00:28;13.80;;;2.58;;
19569;SDS011;9931;51.458;7.256;2022-09-09T14:02:54;26.75;;;4.10;;
19569;SDS011;9931;51.458;7.256;2022-09-09T14:05:20;15.07;;;2.88;;
19569;SDS011;9931;51.458;7.256;2022-09-09T14:07:47;14.20;;;2.45;;
19569;SDS011;9931;51.458;7.256;2022-09-09T14:10:12;11.68;;;2.55;;
19569;SDS011;9931;51.458;7.256;2022-09-09T14:12:38;16.05;;;2.60;;
19569;SDS011;9931;51.458;7.256;2022-09-09T14:15:04;14.05;;;2.58;;
19569;SDS011;9931;51.458;7.256;2022-09-09T14:17:29;11.55;;;2.13;;
19569;SDS011;9931;51.458;7.256;2022-09-09T14:19:55;17.13;;;2.72;;
19569;SDS011;9931;51.458;7.256;2022-09-09T14:22:21;27.35;;;3.95;;
19569;SDS011;9931;51.458;7.256;2022-09-09T14:24:46;25.73;;;3.63;;
19569;SDS011;9931;51.458;7.256;2022-09-09T14:27:11;17.02;;;2.92;;
19569;SDS011;9931;51.458;7.256;2022-09-09T14:29:36;14.27;;;2.63;;
19569;SDS011;9931;51.458;7.256;2022-09-09T14:32:01;16.90;;;3.08;;
19569;SDS011;9931;51.458;7.256;2022-09-09T14:34:27;10.15;;;2.05;;
19569;SDS011;9931;51.458;7.256;2022-09-09T14:36:52;8.48;;;2.00;;
19569;SDS011;9931;51.458;7.256;2022-09-09T14:39:17;7.73;;;1.90;;
19569;SDS011;9931;51.458;7.256;2022-09-09T14:41:42;22.27;;;3.65;;
19569;SDS011;9931;51.458;7.256;2022-09-09T14:44:08;6.38;;;1.85;;
19569;SDS011;9931;51.458;7.256;2022-09-09T14:46:33;7.75;;;1.90;;
19569;SDS011;9931;51.458;7.256;2022-09-09T14:48:58;8.20;;;2.00;;
19569;SDS011;9931;51.458;7.256;2022-09-09T14:51:24;8.13;;;2.10;;
19569;SDS011;9931;51.458;7.256;2022-09-09T14:53:51;10.38;;;2.50;;
19569;SDS011;9931;51.458;7.256;2022-09-09T14:56:17;11.02;;;2.63;;
19569;SDS011;9931;51.458;7.256;2022-09-09T14:58:43;9.77;;;2.33;;
19569;SDS011;9931;51.458;7.256;2022-09-09T15:01:10;92.00;;;36.75;;
19569;SDS011;9931;51.458;7.256;2022-09-09T15:03:36;12.20;;;3.28;;
19569;SDS011;9931;51.458;7.256;2022-09-09T15:06:09;12.52;;;2.78;;
19569;SDS011;9931;51.458;7.256;2022-09-09T15:08:35;8.90;;;2.50;;
19569;SDS011;9931;51.458;7.256;2022-09-09T15:11:01;5.07;;;1.95;;
19569;SDS011;9931;51.458;7.256;2022-09-09T15:13:26;14.73;;;3.45;;
19569;SDS011;9931;51.458;7.256;2022-09-09T15:15:52;24.30;;;4.60;;
19569;SDS011;9931;51.458;7.256;2022-09-09T15:18:18;13.82;;;3.47;;
19569;SDS011;9931;51.458;7.256;2022-09-09T15:20:46;12.68;;;2.92;;
19569;SDS011;9931;51.458;7.256;2022-09-09T15:23:11;18.23;;;5.03;;
19569;SDS011;9931;51.458;7.256;2022-09-09T15:25:36;23.48;;;5.15;;
19569;SDS011;9931;51.458;7.256;2022-09-09T15:28:02;13.25;;;2.88;;
19569;SDS011;9931;51.458;7.256;2022-09-09T15:30:27;10.98;;;2.72;;
19569;SDS011;9931;51.458;7.256;2022-09-09T15:32:52;10.53;;;2.13;;
19569;SDS011;9931;51.458;7.256;2022-09-09T15:35:18;9.95;;;2.15;;
19569;SDS011;9931;51.458;7.256;2022-09-09T15:37:43;13.20;;;3.25;;
19569;SDS011;9931;51.458;7.256;2022-09-09T15:40:10;8.82;;;2.03;;
19569;SDS011;9931;51.458;7.256;2022-09-09T15:42:35;13.50;;;2.65;;
19569;SDS011;9931;51.458;7.256;2022-09-09T15:45:00;10.27;;;2.33;;
19569;SDS011;9931;51.458;7.256;2022-09-09T15:47:25;14.68;;;4.28;;
19569;SDS011;9931;51.458;7.256;2022-09-09T15:49:51;11.02;;;3.40;;
19569;SDS011;9931;51.458;7.256;2022-09-09T15:52:17;15.85;;;4.25;;
19569;SDS011;9931;51.458;7.256;2022-09-09T15:54:42;5.63;;;1.93;;
19569;SDS011;9931;51.458;7.256;2022-09-09T15:57:10;8.00;;;2.13;;
19569;SDS011;9931;51.458;7.256;2022-09-09T15:59:36;11.23;;;2.38;;
19569;SDS011;9931;51.458;7.256;2022-09-09T16:02:02;17.55;;;3.25;;
19569;SDS011;9931;51.458;7.256;2022-09-09T16:04:27;5.28;;;1.55;;
19569;SDS011;9931;51.458;7.256;2022-09-09T16:06:55;8.10;;;2.10;;
19569;SDS011;9931;51.458;7.256;2022-09-09T16:09:22;8.18;;;2.08;;
19569;SDS011;9931;51.458;7.256;2022-09-09T16:11:47;8.77;;;1.92;;
19569;SDS011;9931;51.458;7.256;2022-09-09T16:14:13;9.80;;;2.17;;
19569;SDS011;9931;51.458;7.256;2022-09-09T16:16:40;11.57;;;2.45;;
19569;SDS011;9931;51.458;7.256;2022-09-09T16:19:07;9.50;;;2.10;;
19569;SDS011;9931;51.458;7.256;2022-09-09T16:21:39;7.22;;;1.80;;
19569;SDS011;9931;51.458;7.256;2022-09-09T16:24:05;22.45;;;3.88;;
19569;SDS011;9931;51.458;7.256;2022-09-09T16:26:31;4.25;;;1.33;;
19569;SDS011;9931;51.458;7.256;2022-09-09T16:28:57;7.57;;;1.83;;
19569;SDS011;9931;51.458;7.256;2022-09-09T16:31:26;8.50;;;2.17;;
19569;SDS011;9931;51.458;7.256;2022-09-09T16:33:52;6.70;;;1.77;;
19569;SDS011;9931;51.458;7.256;2022-09-09T16:36:18;14.27;;;2.75;;
19569;SDS011;9931;51.458;7.256;2022-09-09T16:38:44;8.68;;;2.00;;
19569;SDS011;9931;51.458;7.256;2022-09-09T16:41:10;14.20;;;2.85;;
19569;SDS011;9931;51.458;7.256;2022-09-09T16:43:36;6.45;;;1.58;;
19569;SDS011;9931;51.458;7.256;2022-09-09T16:46:02;9.77;;;2.28;;
19569;SDS011;9931;51.458;7.256;2022-09-09T16:48:31;9.70;;;2.40;;
19569;SDS011;9931;51.458;7.256;2022-09-09T16:51:01;23.15;;;4.05;;
19569;SDS011;9931;51.458;7.256;2022-09-09T16:53:27;147.30;;;21.60;;
19569;SDS011;9931;51.458;7.256;2022-09-09T16:55:52;245.38;;;32.60;;
19569;SDS011;9931;51.458;7.256;2022-09-09T16:58:17;364.67;;;49.00;;
19569;SDS011;9931;51.458;7.256;2022-09-09T17:00:42;468.48;;;67.28;;
19569;SDS011;9931;51.458;7.256;2022-09-09T17:03:11;469.52;;;81.70;;
19569;SDS011;9931;51.458;7.256;2022-09-09T17:05:40;306.80;;;52.83;;